Time;durP1;ratioP1;P1;durP2;ratioP2;P2;SDS_P1;SDS_P2;PMS_P1;PMS_P2;Temp;Humidity;BMP_temperature;BMP_pressure;BME280_temperature;BME280_humidity;BME280_pressure;Samples;Min_cycle;Max_cycle;Signal;HPM_P1;HPM_P2
2023/07/31 00:00:08;;;;;;;11.65;4.72;;;;;;;16.35;66.80;99006.38;5071750;28;20032;-59
2023/07/31 00:02:34;;;;;;;6.40;4.45;;;;;;;16.31;66.54;99014.00;5053621;28;20044;-55
2023/07/31 00:05:01;;;;;;;13.27;5.32;;;;;;;16.28;66.34;99008.97;5072499;28;20040;-55
2023/07/31 00:07:29;;;;;;;14.73;5.85;;;;;;;16.27;66.41;99004.56;5075873;28;20032;-59
2023/07/31 00:09:56;;;;;;;9.65;6.55;;;;;;;16.07;66.34;98988.88;5075951;28;20367;-57
2023/07/31 00:12:22;;;;;;;17.15;5.40;;;;;;;16.24;66.65;99014.91;5075368;28;20040;-55
2023/07/31 00:14:48;;;;;;;9.68;4.80;;;;;;;16.15;66.32;98996.06;5075184;28;20040;-56
2023/07/31 00:17:14;;;;;;;15.30;6.10;;;;;;;16.21;66.78;99008.00;5074874;28;20031;-55
2023/07/31 00:19:39;;;;;;;10.45;4.63;;;;;;;15.98;66.41;98973.75;5075411;28;20035;-59
2023/07/31 00:22:05;;;;;;;10.57;8.77;;;;;;;16.01;67.07;98988.75;5075675;28;20025;-57
2023/07/31 00:24:30;;;;;;;15.55;9.60;;;;;;;16.17;66.58;99021.03;5075645;28;20032;-57
2023/07/31 00:26:56;;;;;;;13.93;6.65;;;;;;;16.16;66.65;99010.41;5075532;28;20028;-59
2023/07/31 00:29:21;;;;;;;12.95;5.97;;;;;;;15.87;66.87;98966.03;5075093;28;20432;-57
2023/07/31 00:31:47;;;;;;;12.55;5.55;;;;;;;16.14;67.20;99017.84;5075199;28;20033;-59
2023/07/31 00:34:12;;;;;;;16.60;7.03;;;;;;;16.13;67.52;99021.56;5075683;28;20035;-58
2023/07/31 00:36:38;;;;;;;14.52;6.60;;;;;;;16.09;67.36;99015.69;5075534;28;20036;-54
2023/07/31 00:39:04;;;;;;;14.95;8.25;;;;;;;15.83;66.97;98979.06;5075000;28;20037;-57
2023/07/31 00:41:30;;;;;;;12.77;5.00;;;;;;;15.87;67.51;98984.94;5074946;28;20054;-61
2023/07/31 00:43:55;;;;;;;14.38;5.82;;;;;;;16.04;67.46;99012.69;5075527;28;20107;-57
2023/07/31 00:46:21;;;;;;;25.67;6.25;;;;;;;15.97;67.11;99003.63;5075009;28;20029;-55
2023/07/31 00:48:47;;;;;;;26.17;6.22;;;;;;;16.01;67.27;99007.66;5074638;28;20092;-60
2023/07/31 00:51:13;;;;;;;28.10;5.95;;;;;;;15.98;67.47;99006.13;5073894;28;20041;-56
2023/07/31 00:53:40;;;;;;;28.92;6.38;;;;;;;15.93;67.26;99000.44;5074968;28;20037;-57
2023/07/31 00:56:06;;;;;;;19.85;5.90;;;;;;;15.93;67.28;99013.94;5074221;28;20043;-57
2023/07/31 00:58:31;;;;;;;28.85;6.22;;;;;;;15.90;67.57;99008.91;5074931;28;20028;-60
2023/07/31 01:00:57;;;;;;;25.00;5.38;;;;;;;15.89;67.45;99002.66;5075055;28;20048;-57
2023/07/31 01:03:23;;;;;;;29.52;5.90;;;;;;;15.86;67.40;99019.19;5075105;28;20418;-57
2023/07/31 01:06:09;;;;;;;24.05;5.95;;;;;;;15.93;67.52;99014.78;5075042;28;20056;-58
2023/07/31 01:08:50;;;;;;;24.15;5.32;;;;;;;15.91;67.38;99008.75;5075346;28;20024;-56
2023/07/31 01:11:19;;;;;;;17.48;5.22;;;;;;;15.85;67.21;99017.50;5074304;28;20078;-55
2023/07/31 01:13:45;;;;;;;16.42;7.10;;;;;;;15.82;67.55;99023.25;5074012;28;20037;-58
2023/07/31 01:16:11;;;;;;;17.55;5.43;;;;;;;15.79;67.91;99012.81;5074581;28;20044;-63
2023/07/31 01:18:37;;;;;;;20.65;5.05;;;;;;;15.75;68.16;98995.31;5074585;28;20028;-57
2023/07/31 01:21:22;;;;;;;20.95;5.70;;;;;;;15.89;67.85;99005.34;5074683;28;20360;-59
2023/07/31 01:24:07;;;;;;;17.88;5.25;;;;;;;15.93;67.29;99008.53;5073267;28;20109;-57
2023/07/31 01:26:39;;;;;;;17.48;5.13;;;;;;;15.86;67.46;99011.06;5073771;28;20105;-54
2023/07/31 01:29:17;;;;;;;18.95;4.90;;;;;;;15.88;67.34;99016.31;5074647;28;20035;-60
2023/07/31 01:31:48;;;;;;;19.50;5.10;;;;;;;15.74;67.48;98993.63;5073991;28;20033;-59
2023/07/31 01:34:16;;;;;;;12.25;4.88;;;;;;;15.79;67.51;99018.22;5073986;28;20024;-56
2023/07/31 01:36:41;;;;;;;20.27;5.20;;;;;;;15.78;67.84;99017.34;5073846;28;20027;-59
2023/07/31 01:39:07;;;;;;;20.23;5.53;;;;;;;15.77;67.72;99014.84;5073824;28;20036;-60
2023/07/31 01:41:32;;;;;;;17.67;5.53;;;;;;;15.75;67.62;99014.19;5074165;28;20073;-70
2023/07/31 01:43:58;;;;;;;16.98;4.88;;;;;;;15.69;67.76;98998.72;5074353;28;20376;-57
2023/07/31 01:46:23;;;;;;;11.95;4.45;;;;;;;15.78;67.80;99011.97;5073692;28;20043;-58
2023/07/31 01:48:49;;;;;;;15.70;5.25;;;;;;;15.78;67.99;99016.53;5072883;28;20058;-56
2023/07/31 01:51:14;;;;;;;19.55;4.90;;;;;;;15.79;67.36;99013.66;5074197;28;20036;-59
2023/07/31 01:53:40;;;;;;;21.30;4.18;;;;;;;15.80;67.78;99001.00;5073957;28;20041;-59
2023/07/31 01:56:05;;;;;;;19.92;4.70;;;;;;;15.85;67.23;99004.00;5073816;28;20048;-60
2023/07/31 01:58:31;;;;;;;9.85;4.03;;;;;;;15.88;67.31;99010.91;5073048;28;20020;-55
2023/07/31 02:00:56;;;;;;;13.75;4.85;;;;;;;15.84;67.26;98999.63;5074008;28;20498;-58
2023/07/31 02:03:22;;;;;;;13.98;4.50;;;;;;;15.95;67.18;99014.59;5073261;28;20036;-58
2023/07/31 02:05:49;;;;;;;13.30;4.72;;;;;;;15.93;67.36;99004.00;5072175;28;20094;-61
2023/07/31 02:08:15;;;;;;;18.15;4.65;;;;;;;15.98;66.80;99014.25;5073866;28;20454;-58
2023/07/31 02:10:42;;;;;;;17.50;4.47;;;;;;;15.95;66.78;99013.78;5073945;28;20064;-59
2023/07/31 02:13:07;;;;;;;13.43;3.95;;;;;;;16.02;66.67;99012.03;5073250;28;20093;-58
2023/07/31 02:15:34;;;;;;;10.70;4.40;;;;;;;16.02;66.78;99012.84;5073155;28;20024;-58
2023/07/31 02:18:00;;;;;;;9.35;3.80;;;;;;;16.09;66.30;99012.16;5073622;28;20066;-58
2023/07/31 02:20:25;;;;;;;9.27;3.97;;;;;;;16.12;66.20;99015.31;5073712;28;20037;-58
2023/07/31 02:22:51;;;;;;;13.55;4.07;;;;;;;16.15;66.49;99022.22;5072968;28;20500;-57
2023/07/31 02:25:17;;;;;;;12.35;4.30;;;;;;;16.23;66.38;99021.34;5072850;28;20356;-60
2023/07/31 02:27:42;;;;;;;15.18;4.47;;;;;;;16.26;65.60;98997.50;5072850;28;20334;-60
2023/07/31 02:30:08;;;;;;;10.02;4.03;;;;;;;16.39;65.48;99010.38;5073520;28;20020;-60
2023/07/31 02:32:34;;;;;;;10.25;4.35;;;;;;;16.51;65.05;99010.78;5073537;28;20043;-57
2023/07/31 02:34:59;;;;;;;11.32;4.18;;;;;;;16.45;65.22;98982.66;5072761;28;20032;-59
2023/07/31 02:37:25;;;;;;;13.63;4.15;;;;;;;16.70;65.19;99014.00;5072248;28;20568;-61
2023/07/31 02:39:51;;;;;;;11.32;4.40;;;;;;;16.73;64.97;99006.38;5073452;28;20352;-60
2023/07/31 02:42:16;;;;;;;14.70;4.82;;;;;;;16.78;64.43;99011.22;5073004;28;20064;-58
2023/07/31 02:44:42;;;;;;;12.60;4.15;;;;;;;16.82;64.52;99008.97;5072802;28;20052;-59
2023/07/31 02:47:07;;;;;;;10.43;3.97;;;;;;;16.89;64.06;99009.94;5072509;28;20060;-60
2023/07/31 02:49:33;;;;;;;7.82;4.30;;;;;;;16.87;63.91;99009.25;5073383;28;20082;-56
2023/07/31 02:51:58;;;;;;;9.27;4.10;;;;;;;16.90;63.84;99003.50;5072716;28;20032;-55
2023/07/31 02:54:24;;;;;;;18.92;4.55;;;;;;;16.97;63.74;99006.28;5072704;28;20062;-58
2023/07/31 02:56:49;;;;;;;10.05;4.20;;;;;;;16.97;63.62;98998.19;5072273;28;20040;-58
2023/07/31 02:59:15;;;;;;;10.32;4.32;;;;;;;17.13;63.03;99018.84;5072765;28;20115;-52
2023/07/31 03:01:40;;;;;;;9.73;4.22;;;;;;;17.18;62.89;99009.13;5072128;28;20056;-53
2023/07/31 03:04:07;;;;;;;12.43;4.15;;;;;;;17.24;63.21;99012.94;5072773;28;20056;-57
2023/07/31 03:06:32;;;;;;;8.68;4.57;;;;;;;17.25;62.97;99011.91;5072730;28;20064;-57
2023/07/31 03:08:57;;;;;;;12.13;4.38;;;;;;;17.32;62.74;99014.72;5071783;28;20063;-58
2023/07/31 03:11:23;;;;;;;8.10;4.07;;;;;;;17.41;62.38;99015.47;5072214;28;20044;-58
2023/07/31 03:13:49;;;;;;;7.43;4.88;;;;;;;17.44;62.19;99015.91;5072068;28;20040;-59
2023/07/31 03:16:15;;;;;;;7.80;4.78;;;;;;;17.51;61.90;99010.59;5071927;28;20094;-67
2023/07/31 03:18:40;;;;;;;8.35;4.45;;;;;;;17.56;62.10;99010.84;5072482;28;20034;-66
2023/07/31 03:21:06;;;;;;;8.73;4.85;;;;;;;17.60;61.93;99005.91;5072169;28;20499;-64
2023/07/31 03:23:31;;;;;;;12.38;5.85;;;;;;;17.69;61.69;99007.47;5071976;28;20028;-66
2023/07/31 03:26:03;;;;;;;8.57;4.00;;;;;;;17.84;60.83;99012.84;5072445;28;20075;-65
2023/07/31 03:28:29;;;;;;;6.55;3.90;;;;;;;17.79;60.82;98997.19;5071998;28;20248;-65
2023/07/31 03:30:55;;;;;;;8.40;5.32;;;;;;;17.90;60.58;98998.56;5071946;28;20033;-66
2023/07/31 03:33:21;;;;;;;6.18;4.47;;;;;;;18.11;59.94;99013.16;5070338;28;20043;-66
2023/07/31 03:35:46;;;;;;;7.75;4.03;;;;;;;18.21;59.79;98999.31;5070242;28;20056;-66
2023/07/31 03:38:12;;;;;;;8.50;4.10;;;;;;;18.49;58.93;99002.03;5071568;28;20024;-66
2023/07/31 03:40:38;;;;;;;8.13;4.13;;;;;;;19.05;57.27;99007.69;5071099;28;20028;-65
2023/07/31 03:43:03;;;;;;;9.10;4.28;;;;;;;19.89;54.94;99010.31;5071558;28;20090;-65
2023/07/31 03:45:29;;;;;;;11.85;4.13;;;;;;;20.81;52.08;99000.84;5070689;28;20024;-66
2023/07/31 03:47:54;;;;;;;9.80;4.05;;;;;;;21.85;49.61;98994.66;5071743;28;20020;-66
2023/07/31 03:50:20;;;;;;;7.88;3.67;;;;;;;22.88;46.40;99000.81;5066385;28;20020;-66
2023/07/31 03:52:47;;;;;;;6.97;3.60;;;;;;;23.91;44.13;99003.00;5068413;28;20034;-66
2023/07/31 03:55:12;;;;;;;6.88;3.70;;;;;;;24.75;41.82;98970.38;5071171;28;20033;-66
2023/07/31 03:57:38;;;;;;;8.95;3.58;;;;;;;25.64;39.77;98987.59;5067779;28;20058;-65
2023/07/31 04:00:04;;;;;;;4.82;3.38;;;;;;;26.50;37.47;98991.38;5070243;28;20036;-67
2023/07/31 04:02:30;;;;;;;6.40;3.72;;;;;;;27.35;36.07;98988.50;5071486;28;20032;-65
2023/07/31 04:04:56;;;;;;;8.25;3.67;;;;;;;28.14;34.49;98996.53;5071545;28;20067;-64
2023/07/31 04:07:21;;;;;;;5.47;3.72;;;;;;;28.83;32.91;98985.88;5071616;28;20082;-65
2023/07/31 04:09:47;;;;;;;9.90;3.75;;;;;;;29.56;32.32;99002.81;5070757;28;20422;-67
2023/07/31 04:12:13;;;;;;;6.68;3.58;;;;;;;30.16;30.80;99003.25;5071400;28;20094;-66
2023/07/31 04:14:38;;;;;;;7.93;3.60;;;;;;;30.73;29.60;99002.44;5071248;28;20380;-66
2023/07/31 04:17:04;;;;;;;6.13;3.42;;;;;;;31.26;29.01;98996.53;5070599;28;20111;-66
2023/07/31 04:19:29;;;;;;;11.77;4.20;;;;;;;31.60;28.73;98997.78;5070810;28;20338;-66
2023/07/31 04:21:55;;;;;;;9.75;3.08;;;;;;;32.09;27.54;99010.00;5071348;28;20468;-66
2023/07/31 04:24:24;;;;;;;5.28;3.10;;;;;;;32.63;26.68;99008.19;5067012;28;20025;-67
2023/07/31 04:26:50;;;;;;;10.32;3.67;;;;;;;33.41;25.40;99018.53;5071422;28;20028;-67
2023/07/31 04:29:16;;;;;;;7.10;3.65;;;;;;;34.14;24.47;99012.84;5068055;28;20029;-67
2023/07/31 04:31:41;;;;;;;6.53;3.35;;;;;;;34.72;23.94;99019.16;5070966;28;20474;-67
2023/07/31 04:34:07;;;;;;;8.55;3.33;;;;;;;35.11;22.89;99016.25;5071489;28;20040;-65
2023/07/31 04:36:33;;;;;;;9.00;3.47;;;;;;;35.74;22.76;99022.25;5070938;28;20085;-65
2023/07/31 04:38:59;;;;;;;11.07;3.25;;;;;;;36.22;21.89;99009.75;5070844;28;20033;-66
2023/07/31 04:41:24;;;;;;;15.48;3.92;;;;;;;36.83;20.88;99016.91;5070519;28;20026;-66
2023/07/31 04:43:50;;;;;;;7.82;3.20;;;;;;;37.20;20.55;99032.34;5071516;28;20040;-67
2023/07/31 04:46:15;;;;;;;8.10;3.20;;;;;;;37.56;20.24;99024.94;5070371;28;20047;-65
2023/07/31 04:48:42;;;;;;;10.60;3.40;;;;;;;37.85;19.63;99023.50;5071218;28;20114;-66
2023/07/31 04:51:07;;;;;;;7.68;3.20;;;;;;;38.10;19.58;99029.47;5070932;28;20158;-66
2023/07/31 04:53:33;;;;;;;9.40;3.35;;;;;;;38.63;18.79;99026.69;5075122;28;20044;-66
2023/07/31 04:55:58;;;;;;;7.97;3.05;;;;;;;39.15;18.42;99022.09;5075255;28;20357;-66
2023/07/31 04:58:24;;;;;;;8.90;3.40;;;;;;;39.59;17.94;99035.91;5074328;28;20020;-65
2023/07/31 05:00:49;;;;;;;6.15;3.00;;;;;;;39.67;17.46;99003.41;5074580;28;20078;-66
2023/07/31 05:03:15;;;;;;;9.10;3.33;;;;;;;40.24;17.06;99023.56;5074916;28;20040;-68
2023/07/31 05:05:40;;;;;;;9.07;3.33;;;;;;;40.62;16.80;99022.59;5074901;28;20099;-66
2023/07/31 05:08:06;;;;;;;7.13;3.05;;;;;;;40.91;16.30;99026.41;5074319;28;20044;-64
2023/07/31 05:10:31;;;;;;;6.32;3.38;;;;;;;41.45;16.04;99022.63;5074146;28;20464;-66
2023/07/31 05:12:57;;;;;;;4.50;3.03;;;;;;;41.78;15.33;99029.28;5074855;28;20037;-65
2023/07/31 05:15:22;;;;;;;6.20;3.53;;;;;;;42.11;15.41;99025.47;5073836;28;20047;-66
2023/07/31 05:17:48;;;;;;;9.65;2.88;;;;;;;42.14;14.86;99007.06;5074677;28;20032;-66
2023/07/31 05:20:14;;;;;;;6.47;2.97;;;;;;;42.78;15.03;99023.31;5075091;28;20056;-67
2023/07/31 05:22:40;;;;;;;6.65;4.57;;;;;;;43.17;14.24;99020.72;5074653;28;20034;-66
2023/07/31 05:25:06;;;;;;;7.78;3.30;;;;;;;43.73;13.73;99022.47;5073068;28;20029;-66
2023/07/31 05:27:32;;;;;;;7.05;3.65;;;;;;;44.50;13.36;99010.78;5074575;28;20510;-66
2023/07/31 05:29:58;;;;;;;8.95;3.30;;;;;;;45.14;12.95;99020.84;5073740;28;20099;-65
2023/07/31 05:32:23;;;;;;;8.43;3.67;;;;;;;45.48;12.52;99017.34;5074049;28;20051;-66
2023/07/31 05:34:52;;;;;;;5.90;3.22;;;;;;;45.93;12.26;99028.91;5073495;28;20024;-61
2023/07/31 05:37:17;;;;;;;5.47;3.30;;;;;;;46.06;12.07;99023.81;5073825;28;20036;-62
2023/07/31 05:39:43;;;;;;;4.38;2.80;;;;;;;46.35;12.03;99021.34;5073787;28;20078;-62
2023/07/31 05:42:09;;;;;;;5.88;3.30;;;;;;;46.66;11.68;99022.94;5074658;28;20039;-59
2023/07/31 05:44:34;;;;;;;8.77;2.60;;;;;;;46.81;11.48;99018.22;5090217;28;20093;-62
2023/07/31 05:47:00;;;;;;;7.43;3.10;;;;;;;47.18;11.23;99022.19;5074177;28;20407;-61
2023/07/31 05:49:25;;;;;;;9.32;2.85;;;;;;;47.84;10.93;99010.09;5073813;28;20075;-61
2023/07/31 05:51:51;;;;;;;4.50;2.90;;;;;;;48.16;10.53;99011.47;5072235;28;20108;-60
2023/07/31 05:54:16;;;;;;;5.63;3.00;;;;;;;48.64;10.58;99026.63;5073949;28;20514;-61
2023/07/31 05:56:42;;;;;;;6.45;3.47;;;;;;;48.93;9.97;99027.47;5073960;28;20118;-61
2023/07/31 05:59:10;;;;;;;5.93;3.22;;;;;;;49.25;9.82;99032.38;5073750;28;20029;-61
2023/07/31 06:01:35;;;;;;;5.90;2.85;;;;;;;49.58;9.62;99023.84;5074211;28;20495;-61
2023/07/31 06:04:03;;;;;;;4.88;3.10;;;;;;;50.30;9.04;99019.94;5072681;28;20032;-62
2023/07/31 06:06:28;;;;;;;8.40;3.28;;;;;;;50.73;8.75;99026.59;5071959;28;20085;-60
2023/07/31 06:08:54;;;;;;;5.00;3.13;;;;;;;50.93;8.43;99021.97;5069536;28;20037;-62
2023/07/31 06:11:20;;;;;;;5.93;2.33;;;;;;;51.08;8.21;99024.69;5057056;28;20055;-62
2023/07/31 06:13:48;;;;;;;9.57;2.63;;;;;;;51.15;8.40;99021.81;5073658;28;20091;-62
2023/07/31 06:16:14;;;;;;;3.67;2.83;;;;;;;51.22;8.52;99020.91;5073535;28;20058;-61
2023/07/31 06:18:39;;;;;;;5.93;2.83;;;;;;;51.46;7.96;99021.94;5073816;28;20444;-62
2023/07/31 06:21:05;;;;;;;4.95;2.60;;;;;;;51.80;7.71;99024.00;5070749;28;20021;-65
2023/07/31 06:23:31;;;;;;;6.78;3.22;;;;;;;52.27;7.60;99016.91;5057811;28;20033;-66
2023/07/31 06:25:56;;;;;;;4.65;3.08;;;;;;;52.64;7.05;99009.44;5068551;28;20119;-63
2023/07/31 06:28:27;;;;;;;6.20;2.90;;;;;;;53.45;6.59;99018.31;5061665;28;20024;-63
2023/07/31 06:30:53;;;;;;;8.02;3.60;;;;;;;53.48;7.07;99006.00;5066166;28;20097;-65
2023/07/31 06:33:18;;;;;;;4.15;3.38;;;;;;;53.64;6.82;98995.91;5063864;28;20513;-66
2023/07/31 06:35:45;;;;;;;6.72;3.55;;;;;;;53.86;6.61;99021.22;5070592;28;20469;-66
2023/07/31 06:38:11;;;;;;;5.93;3.47;;;;;;;54.15;6.60;99023.50;5072140;28;20052;-68
2023/07/31 06:40:37;;;;;;;10.30;3.70;;;;;;;54.43;6.34;99012.66;5072695;28;20430;-67
2023/07/31 06:43:07;;;;;;;4.25;3.45;;;;;;;54.57;6.32;99026.66;5070975;28;20028;-65
2023/07/31 06:45:34;;;;;;;4.88;3.50;;;;;;;54.72;5.61;99032.03;5067907;28;20463;-64
2023/07/31 06:48:01;;;;;;;4.95;3.17;;;;;;;54.88;5.81;99023.44;5070535;28;20037;-64
2023/07/31 06:50:28;;;;;;;3.60;3.22;;;;;;;55.11;5.22;99030.25;5070535;28;20098;-66
2023/07/31 06:52:53;;;;;;;5.95;3.58;;;;;;;55.50;5.14;99011.22;5070999;28;20111;-66
2023/07/31 06:55:20;;;;;;;5.50;3.60;;;;;;;55.85;5.24;99033.59;5072065;28;20190;-67
2023/07/31 06:57:51;;;;;;;8.10;3.38;;;;;;;56.12;5.03;99025.84;5072238;28;20112;-66
2023/07/31 07:00:17;;;;;;;6.40;3.88;;;;;;;56.44;4.52;99024.09;5070895;28;20024;-68
2023/07/31 07:02:43;;;;;;;3.53;3.20;;;;;;;56.37;4.35;99022.25;5070227;28;20139;-68
2023/07/31 07:05:09;;;;;;;4.85;3.70;;;;;;;56.33;5.06;99010.84;5052045;28;20037;-65
2023/07/31 07:07:35;;;;;;;4.18;3.75;;;;;;;56.28;5.02;99016.31;5062683;28;20029;-63
2023/07/31 07:10:03;;;;;;;7.05;3.72;;;;;;;56.20;5.11;99021.53;5068750;28;20114;-62
2023/07/31 07:12:32;;;;;;;4.43;3.50;;;;;;;56.60;4.41;99026.03;5070924;28;20043;-63
2023/07/31 07:14:58;;;;;;;4.20;3.08;;;;;;;56.67;4.52;99016.34;5072049;28;20028;-64
2023/07/31 07:17:25;;;;;;;4.22;3.35;;;;;;;56.76;4.17;99023.00;5071899;28;20449;-60
2023/07/31 07:19:51;;;;;;;3.95;3.53;;;;;;;56.67;4.56;99019.22;5071858;28;20040;-66
2023/07/31 07:22:18;;;;;;;4.30;3.50;;;;;;;57.13;4.17;99022.59;5071626;28;20024;-65
2023/07/31 07:24:43;;;;;;;3.95;3.65;;;;;;;57.35;3.82;98993.09;5071389;28;20058;-65
2023/07/31 07:27:09;;;;;;;4.30;4.00;;;;;;;57.88;3.69;99011.69;5070475;28;20049;-69
2023/07/31 07:29:35;;;;;;;6.65;3.97;;;;;;;58.37;3.49;99012.34;5071882;28;20363;-66
2023/07/31 07:32:00;;;;;;;6.50;5.00;;;;;;;58.31;4.08;99010.06;5071295;28;20043;-72
2023/07/31 07:34:27;;;;;;;5.25;4.78;;;;;;;58.39;3.48;99024.19;5070851;28;20102;-71
2023/07/31 07:36:53;;;;;;;5.63;5.07;;;;;;;58.46;3.53;99023.88;5053793;28;20094;-79
2023/07/31 07:39:19;;;;;;;5.18;4.72;;;;;;;58.09;3.70;99006.41;5071834;28;20090;-71
2023/07/31 07:41:44;;;;;;;5.10;4.70;;;;;;;58.32;3.97;99028.16;5069567;28;20028;-73
2023/07/31 07:44:10;;;;;;;5.65;5.35;;;;;;;58.17;3.66;99017.16;5061898;28;20082;-75
2023/07/31 07:46:35;;;;;;;5.60;5.20;;;;;;;58.19;3.39;99019.59;5051009;28;20064;-75
2023/07/31 07:49:01;;;;;;;5.85;5.43;;;;;;;57.80;3.64;99016.16;5034159;28;20025;-65
2023/07/31 07:51:26;;;;;;;5.03;4.65;;;;;;;57.55;3.63;99023.63;5051181;28;20029;-67
2023/07/31 07:53:52;;;;;;;6.10;5.35;;;;;;;57.76;3.74;99014.22;5069454;28;20357;-65
2023/07/31 07:56:17;;;;;;;5.00;4.72;;;;;;;57.69;3.77;99011.63;5071754;28;20041;-70
2023/07/31 07:58:43;;;;;;;5.30;4.88;;;;;;;57.67;3.90;99010.47;5071444;28;20506;-66
2023/07/31 08:01:08;;;;;;;4.95;4.55;;;;;;;57.22;3.98;99016.13;5070745;28;20031;-66
2023/07/31 08:03:34;;;;;;;6.13;5.05;;;;;;;56.44;4.05;99009.72;5071437;28;20028;-68
2023/07/31 08:06:00;;;;;;;5.20;4.80;;;;;;;55.95;4.60;99017.28;5071889;28;20043;-67
2023/07/31 08:08:27;;;;;;;4.50;4.18;;;;;;;55.51;4.47;99017.72;5070946;28;20033;-65
2023/07/31 08:10:52;;;;;;;5.20;4.05;;;;;;;55.07;4.71;99003.75;5070546;28;20052;-72
2023/07/31 08:13:18;;;;;;;4.43;4.03;;;;;;;54.75;4.99;99011.91;5053928;28;20033;-66
2023/07/31 08:15:44;;;;;;;3.83;3.42;;;;;;;53.79;5.22;99020.16;5071700;28;20427;-67
2023/07/31 08:18:11;;;;;;;5.88;3.45;;;;;;;53.16;5.42;99006.56;5071562;28;20032;-65
2023/07/31 08:20:37;;;;;;;4.03;2.80;;;;;;;52.23;5.66;99004.72;5070587;28;20020;-69
2023/07/31 08:23:02;;;;;;;4.72;2.42;;;;;;;48.94;7.37;99003.53;5058866;28;20039;-63
2023/07/31 08:25:28;;;;;;;3.45;1.65;;;;;;;45.63;9.48;98973.94;5058710;28;20035;-64
2023/07/31 08:27:53;;;;;;;9.35;4.72;;;;;;;43.16;11.31;99004.97;5057045;28;20035;-69
2023/07/31 08:30:19;;;;;;;3.05;1.67;;;;;;;40.94;12.86;99008.06;5067707;28;20032;-69
2023/07/31 08:32:45;;;;;;;2.17;1.65;;;;;;;39.08;14.83;99002.22;5053618;28;20025;-69
2023/07/31 08:35:10;;;;;;;4.80;1.55;;;;;;;37.62;16.17;99017.25;5054035;28;20809;-74
2023/07/31 08:37:38;;;;;;;2.10;1.60;;;;;;;36.32;17.21;99022.59;5044083;28;20037;-69
2023/07/31 08:40:04;;;;;;;5.05;1.52;;;;;;;35.29;18.12;99015.34;5074109;28;20025;-73
2023/07/31 08:42:31;;;;;;;2.10;1.90;;;;;;;34.09;18.80;98970.44;5074609;28;20020;-71
2023/07/31 08:44:59;;;;;;;4.60;1.90;;;;;;;33.73;19.80;99024.50;5073941;28;20050;-71
2023/07/31 08:47:26;;;;;;;3.60;1.70;;;;;;;33.16;20.00;99011.31;5074536;28;20055;-69
2023/07/31 08:49:52;;;;;;;4.28;1.40;;;;;;;32.27;20.44;98966.09;5068439;28;20024;-71
2023/07/31 08:52:18;;;;;;;5.65;1.60;;;;;;;32.21;22.28;99021.53;5074278;28;20028;-70
2023/07/31 08:54:43;;;;;;;4.10;1.73;;;;;;;31.91;21.74;99026.16;5073457;28;20044;-67
2023/07/31 08:57:11;;;;;;;6.25;1.88;;;;;;;31.54;22.43;99023.81;5073231;28;20085;-67
2023/07/31 08:59:38;;;;;;;3.97;2.00;;;;;;;31.42;21.88;99022.19;5056998;28;20029;-68
2023/07/31 09:02:07;;;;;;;3.38;1.58;;;;;;;31.52;22.51;99021.31;5072670;28;20039;-65
2023/07/31 09:04:33;;;;;;;3.63;1.58;;;;;;;31.68;22.98;99024.84;5073829;28;20093;-68
2023/07/31 09:07:04;;;;;;;6.03;1.70;;;;;;;31.46;22.49;98969.91;5072291;28;20135;-67
2023/07/31 09:09:33;;;;;;;1.80;1.70;;;;;;;31.69;22.03;99023.72;5073183;28;20039;-65
2023/07/31 09:11:59;;;;;;;4.60;1.63;;;;;;;31.60;22.18;99019.91;5073377;28;20048;-66
2023/07/31 09:14:25;;;;;;;1.73;1.50;;;;;;;31.68;22.10;99018.50;5072741;28;20553;-65
2023/07/31 09:16:53;;;;;;;1.40;1.30;;;;;;;31.68;21.78;99010.19;5073679;28;20171;-64
2023/07/31 09:19:29;;;;;;;2.67;1.60;;;;;;;31.45;21.78;98987.63;5074134;28;20120;-65
2023/07/31 09:21:55;;;;;;;2.45;1.80;;;;;;;31.38;22.71;99025.81;5072137;28;20039;-63
2023/07/31 09:24:31;;;;;;;4.18;1.80;;;;;;;31.38;22.81;99021.09;5070834;28;20375;-63
2023/07/31 09:26:59;;;;;;;3.63;1.63;;;;;;;30.94;23.47;99028.13;5073864;28;20369;-64
2023/07/31 09:29:26;;;;;;;2.03;1.60;;;;;;;30.55;23.89;99014.84;5073926;28;20036;-66
2023/07/31 09:31:52;;;;;;;3.40;1.90;;;;;;;30.22;24.78;99012.34;5073229;28;20056;-66
2023/07/31 09:34:18;;;;;;;2.90;1.50;;;;;;;30.17;25.24;99009.59;5073762;28;20033;-65
2023/07/31 09:36:48;;;;;;;2.20;1.50;;;;;;;30.22;24.58;99021.47;5073157;28;20922;-65
2023/07/31 09:39:15;;;;;;;2.45;1.85;;;;;;;30.39;25.19;99012.09;5071486;28;20044;-65
2023/07/31 09:41:48;;;;;;;4.28;1.90;;;;;;;30.66;25.03;99016.53;5073361;28;20143;-67
2023/07/31 09:44:13;;;;;;;5.25;1.80;;;;;;;30.51;24.83;98993.31;5072583;28;20036;-66
2023/07/31 09:46:39;;;;;;;5.57;1.98;;;;;;;30.68;24.32;99011.56;5072955;28;20107;-67
2023/07/31 09:49:06;;;;;;;1.83;1.60;;;;;;;30.66;24.30;99022.06;5072763;28;20032;-71
2023/07/31 09:51:37;;;;;;;1.70;1.60;;;;;;;30.63;23.16;99011.56;5072280;28;20543;-67
2023/07/31 09:54:04;;;;;;;4.53;2.20;;;;;;;30.52;24.24;98983.09;5071949;28;20056;-68
2023/07/31 09:56:32;;;;;;;6.18;2.42;;;;;;;30.73;24.29;99011.56;5073242;28;20074;-67
2023/07/31 09:58:57;;;;;;;2.38;1.90;;;;;;;30.77;24.41;99004.38;5072031;28;20372;-63
2023/07/31 10:01:23;;;;;;;2.60;2.35;;;;;;;30.76;24.23;98999.13;5073868;28;20035;-65
2023/07/31 10:03:49;;;;;;;2.83;2.50;;;;;;;30.74;23.86;99017.91;5071972;28;20031;-65
2023/07/31 10:06:18;;;;;;;2.90;2.17;;;;;;;30.68;23.84;99008.81;5072277;28;20902;-65
2023/07/31 10:08:47;;;;;;;3.30;1.90;;;;;;;30.89;23.01;99014.31;5072126;28;20032;-70
2023/07/31 10:11:14;;;;;;;2.58;1.67;;;;;;;31.15;22.72;99000.44;5071765;28;20450;-68
2023/07/31 10:13:42;;;;;;;4.68;1.70;;;;;;;31.22;23.18;98990.72;5073193;28;20041;-64
2023/07/31 10:16:08;;;;;;;3.25;1.80;;;;;;;31.31;21.97;98977.16;5071248;28;20032;-65
2023/07/31 10:18:35;;;;;;;3.80;2.78;;;;;;;31.71;22.36;99004.09;5072214;28;20029;-64
2023/07/31 10:21:01;;;;;;;1.70;1.60;;;;;;;31.97;22.12;99015.03;5073243;28;20105;-64
2023/07/31 10:23:28;;;;;;;4.70;1.80;;;;;;;32.18;22.86;99022.09;5068474;28;20025;-64
2023/07/31 10:25:54;;;;;;;4.53;1.67;;;;;;;32.20;22.24;99008.78;5052284;28;20086;-64
2023/07/31 10:28:20;;;;;;;3.42;2.05;;;;;;;32.17;21.77;99014.91;5053077;28;20029;-64
2023/07/31 10:30:46;;;;;;;1.80;1.67;;;;;;;31.93;21.75;99006.47;5051943;28;20875;-62
2023/07/31 10:33:12;;;;;;;3.83;2.00;;;;;;;31.90;22.00;99016.19;5057599;28;20099;-66
2023/07/31 10:35:37;;;;;;;3.88;2.13;;;;;;;31.75;22.35;99013.47;5072463;28;20036;-62
2023/07/31 10:38:13;;;;;;;2.63;1.90;;;;;;;31.85;22.36;99018.16;5071218;28;20112;-63
2023/07/31 10:40:40;;;;;;;2.88;1.92;;;;;;;31.84;22.62;99016.50;5072295;28;20344;-63
2023/07/31 10:43:08;;;;;;;4.10;2.00;;;;;;;31.85;22.36;99010.69;5072371;28;20055;-63
2023/07/31 10:45:42;;;;;;;4.43;2.28;;;;;;;32.13;22.46;99024.06;5071390;28;20029;-63
2023/07/31 10:48:15;;;;;;;2.13;1.73;;;;;;;32.05;22.19;99017.19;5071323;28;20063;-62
2023/07/31 10:50:59;;;;;;;2.03;1.85;;;;;;;31.88;23.01;99021.19;5071798;28;20040;-64
2023/07/31 10:53:32;;;;;;;4.28;1.85;;;;;;;31.40;23.32;99013.34;5071042;28;20090;-65
2023/07/31 10:55:59;;;;;;;4.05;2.00;;;;;;;31.31;23.57;99015.06;5052527;28;20039;-68
2023/07/31 10:58:25;;;;;;;3.53;2.05;;;;;;;31.03;23.77;98982.19;5069886;28;20029;-71
2023/07/31 11:00:56;;;;;;;2.67;2.17;;;;;;;31.40;24.41;99020.84;5063348;28;20032;-71
2023/07/31 11:03:41;;;;;;;3.38;2.10;;;;;;;31.49;23.89;99027.44;5071083;28;20054;-71
2023/07/31 11:06:07;;;;;;;4.70;1.70;;;;;;;31.36;23.66;99020.56;5088305;28;20029;-70
2023/07/31 11:08:34;;;;;;;3.97;2.00;;;;;;;31.14;23.19;99018.94;5070444;28;20082;-70
2023/07/31 11:11:03;;;;;;;2.30;1.77;;;;;;;30.99;24.10;99019.81;5071902;28;20131;-68
2023/07/31 11:13:44;;;;;;;5.57;1.90;;;;;;;30.78;23.83;99019.84;5071624;28;20056;-73
2023/07/31 11:16:11;;;;;;;4.80;2.50;;;;;;;30.62;24.18;99020.94;5071005;28;20043;-70
2023/07/31 11:18:40;;;;;;;5.00;2.28;;;;;;;30.35;23.89;98984.22;5070239;28;20036;-70
2023/07/31 11:21:06;;;;;;;2.40;1.75;;;;;;;30.53;23.72;99022.59;5071690;28;20131;-70
2023/07/31 11:23:32;;;;;;;3.97;2.20;;;;;;;30.47;23.94;99014.31;5071711;28;20120;-70
2023/07/31 11:26:01;;;;;;;3.97;1.70;;;;;;;30.62;24.40;99020.94;5034460;28;20094;-69
2023/07/31 11:28:34;;;;;;;2.85;1.90;;;;;;;30.77;23.92;99018.19;5063565;28;20029;-72
2023/07/31 11:31:01;;;;;;;3.88;2.00;;;;;;;30.86;23.98;99020.38;5070929;28;20168;-69